Time;durP1;ratioP1;P1;durP2;ratioP2;P2;SDS_P1;SDS_P2;PMS_P1;PMS_P2;Temp;Humidity;BMP_temperature;BMP_pressure;BME280_temperature;BME280_humidity;BME280_pressure;Samples;Min_cycle;Max_cycle;Signal;HPM_P1;HPM_P2
2021/12/03 00:00:32;;;;;;;14.10;7.57;;;;;;;-0.18;100.00;99509.31;4994870;28;20033;-77
2021/12/03 00:02:57;;;;;;;14.60;7.20;;;;;;;-0.18;100.00;99508.47;4994956;28;20034;-77
2021/12/03 00:05:23;;;;;;;15.90;8.48;;;;;;;-0.17;100.00;99508.47;4994777;28;20569;-77
2021/12/03 00:07:48;;;;;;;13.43;7.70;;;;;;;-0.12;100.00;99500.75;4993710;28;20539;-78
2021/12/03 00:10:15;;;;;;;13.38;7.90;;;;;;;-0.15;100.00;99495.63;4994734;28;20054;-77
2021/12/03 00:12:42;;;;;;;14.63;7.85;;;;;;;-0.15;100.00;99499.03;4994865;28;20480;-77
2021/12/03 00:15:10;;;;;;;14.57;7.93;;;;;;;-0.11;100.00;99494.75;4995559;28;20366;-77
2021/12/03 00:17:36;;;;;;;18.23;7.38;;;;;;;-0.12;100.00;99491.34;4996468;28;20134;-78
2021/12/03 00:20:04;;;;;;;13.75;7.80;;;;;;;-0.17;100.00;99505.91;4995578;28;20042;-77
2021/12/03 00:22:30;;;;;;;13.23;7.32;;;;;;;-0.25;100.00;99497.31;4994206;28;20039;-78
2021/12/03 00:24:58;;;;;;;16.27;7.28;;;;;;;-0.22;100.00;99501.59;4996242;28;20034;-78
2021/12/03 00:27:24;;;;;;;12.85;7.07;;;;;;;-0.25;100.00;99499.88;4996371;28;20030;-78
2021/12/03 00:29:49;;;;;;;14.30;8.20;;;;;;;-0.24;100.00;99493.03;4995384;28;20117;-78
2021/12/03 00:32:15;;;;;;;15.88;6.93;;;;;;;-0.27;100.00;99487.88;4996414;28;20037;-78
2021/12/03 00:34:40;;;;;;;12.30;7.13;;;;;;;-0.17;100.00;99484.47;4997624;28;20046;-78
2021/12/03 00:37:33;;;;;;;15.00;7.72;;;;;;;-0.23;100.00;99493.03;4994053;28;20094;-79
2021/12/03 00:39:58;;;;;;;10.80;6.75;;;;;;;-0.18;100.00;99499.03;4996009;28;20061;-78
2021/12/03 00:42:26;;;;;;;12.05;7.03;;;;;;;-0.18;100.00;99506.75;4997283;28;20126;-77
2021/12/03 00:44:55;;;;;;;14.07;7.10;;;;;;;-0.16;100.00;99515.34;4995088;28;20042;-78
2021/12/03 00:47:20;;;;;;;13.75;6.97;;;;;;;-0.22;100.00;99504.16;4995616;28;20085;-77
2021/12/03 00:49:45;;;;;;;15.23;7.68;;;;;;;-0.13;100.00;99514.47;4993668;28;20432;-78
2021/12/03 00:52:11;;;;;;;12.00;6.53;;;;;;;-0.18;100.00;99503.31;4995579;28;20477;-78
2021/12/03 00:54:39;;;;;;;14.48;6.97;;;;;;;-0.19;100.00;99506.75;4994019;28;20121;-78
2021/12/03 00:57:08;;;;;;;12.18;7.18;;;;;;;-0.23;100.00;99508.47;4994141;28;20038;-77
2021/12/03 00:59:35;;;;;;;15.27;7.57;;;;;;;-0.18;100.00;99509.31;4995170;28;20038;-77
2021/12/03 01:02:00;;;;;;;16.80;7.25;;;;;;;-0.25;100.00;99504.16;4995862;28;20539;-77
2021/12/03 01:04:29;;;;;;;14.02;6.82;;;;;;;-0.16;100.00;99509.34;4995386;28;20033;-77
2021/12/03 01:06:54;;;;;;;12.27;6.63;;;;;;;-0.15;100.00;99508.47;4994154;28;20470;-77
2021/12/03 01:09:21;;;;;;;13.85;6.95;;;;;;;-0.13;100.00;99519.63;4995482;28;20169;-77
2021/12/03 01:11:47;;;;;;;13.95;7.35;;;;;;;-0.18;100.00;99523.91;4994794;28;20038;-78
2021/12/03 01:14:13;;;;;;;16.80;8.55;;;;;;;-0.13;100.00;99524.78;4998178;28;20045;-78
2021/12/03 01:16:38;;;;;;;17.88;9.48;;;;;;;-0.12;100.00;99529.06;4995251;28;20030;-77
2021/12/03 01:19:04;;;;;;;18.38;9.52;;;;;;;-0.16;100.00;99532.47;4994912;28;20090;-77
2021/12/03 01:21:29;;;;;;;21.80;10.27;;;;;;;-0.15;100.00;99544.47;4995174;28;20061;-78
2021/12/03 01:23:55;;;;;;;22.55;9.70;;;;;;;-0.15;100.00;99549.63;4995496;28;20039;-77
2021/12/03 01:26:22;;;;;;;17.35;9.43;;;;;;;-0.16;100.00;99542.75;4994115;28;20034;-77
2021/12/03 01:28:48;;;;;;;28.75;11.27;;;;;;;-0.15;100.00;99549.63;4994613;28;20030;-77
2021/12/03 01:31:15;;;;;;;22.38;9.43;;;;;;;-0.09;100.00;99545.34;4942459;28;20038;-78
2021/12/03 01:33:40;;;;;;;22.20;10.63;;;;;;;-0.04;100.00;99550.50;4993656;28;20400;-77
2021/12/03 01:36:06;;;;;;;20.98;10.82;;;;;;;-0.04;100.00;99545.38;4994964;28;20030;-79
2021/12/03 01:38:32;;;;;;;19.17;9.07;;;;;;;-0.01;100.00;99545.38;4994432;28;20548;-78
2021/12/03 01:40:57;;;;;;;23.20;11.50;;;;;;;0.02;100.00;99545.34;4994646;28;20616;-78
2021/12/03 01:43:24;;;;;;;18.70;9.40;;;;;;;-0.05;100.00;99544.50;4994480;28;20029;-77
2021/12/03 01:45:53;;;;;;;20.35;9.57;;;;;;;0.04;100.00;99543.66;4994083;28;20041;-77
2021/12/03 01:48:20;;;;;;;23.70;10.77;;;;;;;0.08;100.00;99542.78;4995443;28;20042;-77
2021/12/03 01:50:46;;;;;;;21.05;10.73;;;;;;;0.20;100.00;99536.81;5001065;28;20028;-78
2021/12/03 01:53:12;;;;;;;;;;;;;;;0.16;100.00;99545.38;4998285;28;20046;-77
2021/12/03 01:55:39;;;;;;;22.15;9.55;;;;;;;0.11;100.00;99542.81;4998081;28;19917;-77
2021/12/03 01:58:05;;;;;;;18.02;9.48;;;;;;;0.11;100.00;99542.81;4994699;28;20034;-77
2021/12/03 02:00:40;;;;;;;24.60;11.23;;;;;;;0.19;100.00;99541.09;4995588;28;20141;-78
2021/12/03 02:03:08;;;;;;;23.15;9.68;;;;;;;0.11;100.00;99547.94;4997654;28;20085;-77
2021/12/03 02:05:34;;;;;;;22.88;11.05;;;;;;;0.30;100.00;99538.53;4997924;28;20069;-78
2021/12/03 02:08:00;;;;;;;21.70;10.48;;;;;;;0.35;100.00;99546.25;4997849;28;20053;-77
2021/12/03 02:10:25;;;;;;;25.20;10.65;;;;;;;0.35;100.00;99549.69;4997554;28;20453;-77
2021/12/03 02:12:52;;;;;;;23.58;9.75;;;;;;;0.33;100.00;99543.69;4998231;28;20042;-77
2021/12/03 02:15:18;;;;;;;27.55;11.52;;;;;;;0.28;100.00;99538.53;4998056;28;20030;-77
2021/12/03 02:17:43;;;;;;;24.85;10.70;;;;;;;0.37;100.00;99545.41;4997642;28;20425;-76
2021/12/03 02:20:11;;;;;;;23.75;10.73;;;;;;;0.33;100.00;99533.41;4997656;28;20036;-77
2021/12/03 02:22:40;;;;;;;24.30;10.75;;;;;;;0.27;100.00;99534.25;4997368;28;20026;-77
2021/12/03 02:25:08;;;;;;;22.67;10.73;;;;;;;0.26;100.00;99535.09;4997405;28;20454;-77
2021/12/03 02:27:33;;;;;;;25.30;11.15;;;;;;;0.21;100.00;99539.38;4997232;28;20038;-78
2021/12/03 02:29:59;;;;;;;31.35;11.90;;;;;;;0.34;100.00;99532.53;4997338;28;20026;-78
2021/12/03 02:32:25;;;;;;;21.27;10.52;;;;;;;0.30;100.00;99531.66;4998049;28;20088;-78
2021/12/03 02:34:50;;;;;;;25.80;9.88;;;;;;;0.30;100.00;99534.25;4997627;28;20033;-77
2021/12/03 02:37:15;;;;;;;22.92;9.63;;;;;;;0.29;100.00;99531.66;4997582;28;20062;-79
2021/12/03 02:39:41;;;;;;;24.40;9.80;;;;;;;0.27;100.00;99536.81;4997318;28;20074;-78
2021/12/03 02:42:07;;;;;;;20.92;10.00;;;;;;;0.20;100.00;99541.97;4997129;28;20045;-77
2021/12/03 02:44:32;;;;;;;25.25;10.38;;;;;;;0.24;100.00;99535.97;4997542;28;20037;-77
2021/12/03 02:46:57;;;;;;;32.25;11.02;;;;;;;0.23;100.00;99529.09;4997069;28;20058;-78
2021/12/03 02:49:23;;;;;;;32.75;12.57;;;;;;;0.23;100.00;99544.53;4999417;28;20113;-78
2021/12/03 02:51:48;;;;;;;26.27;10.23;;;;;;;0.14;100.00;99540.22;4997202;28;20048;-77
2021/12/03 02:54:14;;;;;;;31.25;11.07;;;;;;;0.17;100.00;99529.94;4995838;28;20066;-78
2021/12/03 02:56:39;;;;;;;25.73;9.98;;;;;;;0.17;100.00;99536.81;4996983;28;20030;-78
2021/12/03 02:59:05;;;;;;;35.38;10.20;;;;;;;0.17;100.00;99535.09;4997109;28;20489;-78
2021/12/03 03:01:31;;;;;;;33.10;11.70;;;;;;;0.21;100.00;99533.38;4997133;28;20058;-77
2021/12/03 03:03:56;;;;;;;;;;;;;;;0.21;100.00;99541.09;4996175;28;20490;-77
2021/12/03 03:06:22;;;;;;;31.20;11.55;;;;;;;0.18;100.00;99547.09;5012471;28;19973;-78
2021/12/03 03:08:48;;;;;;;26.30;11.32;;;;;;;0.10;100.00;99547.94;4996379;28;20026;-77
2021/12/03 03:11:14;;;;;;;;;;;;;;;0.20;100.00;99549.69;4996804;28;20100;-77
2021/12/03 03:13:39;;;;;;;27.48;10.13;;;;;;;0.14;100.00;99547.94;4996233;28;20013;-76
2021/12/03 03:16:05;;;;;;;32.42;11.23;;;;;;;0.21;100.00;99556.53;4996179;28;20027;-77
2021/12/03 03:18:31;;;;;;;30.20;10.90;;;;;;;0.30;100.00;99557.41;4997449;28;20038;-78
2021/12/03 03:21:00;;;;;;;25.83;10.13;;;;;;;0.26;100.00;99553.13;4997374;28;20072;-78
2021/12/03 03:23:25;;;;;;;26.90;9.75;;;;;;;0.27;100.00;99556.56;4996603;28;20030;-77
2021/12/03 03:25:51;;;;;;;33.08;10.88;;;;;;;0.29;100.00;99558.28;4996452;28;20469;-77
2021/12/03 03:28:19;;;;;;;25.80;11.07;;;;;;;0.33;100.00;99565.13;4996840;28;20120;-78
2021/12/03 03:30:46;;;;;;;28.83;10.00;;;;;;;0.33;100.00;99561.72;4996597;28;20041;-77
2021/12/03 03:33:13;;;;;;;26.98;11.13;;;;;;;0.30;100.00;99560.00;4952321;28;20393;-77
2021/12/03 03:35:38;;;;;;;28.35;10.65;;;;;;;0.32;100.00;99544.53;4996190;28;20083;-77
2021/12/03 03:38:04;;;;;;;26.95;10.77;;;;;;;0.36;100.00;99550.56;4996365;28;20401;-77
2021/12/03 03:40:30;;;;;;;30.05;10.30;;;;;;;0.37;100.00;99550.56;4997187;28;20069;-77
2021/12/03 03:43:00;;;;;;;29.30;9.52;;;;;;;0.34;100.00;99545.41;4996743;28;20029;-78
2021/12/03 03:45:27;;;;;;;24.88;8.65;;;;;;;0.33;100.00;99546.25;4996599;28;20041;-77
2021/12/03 03:47:52;;;;;;;24.63;9.55;;;;;;;0.35;100.00;99543.69;4996638;28;20126;-78
2021/12/03 03:50:19;;;;;;;29.83;10.00;;;;;;;0.36;100.00;99537.69;4996251;28;20113;-77
2021/12/03 03:52:46;;;;;;;23.23;10.77;;;;;;;0.33;100.00;99544.53;4996739;28;20481;-78
2021/12/03 03:55:13;;;;;;;28.88;9.90;;;;;;;0.29;100.00;99545.41;4996016;28;20109;-77
2021/12/03 03:57:39;;;;;;;30.63;10.60;;;;;;;0.30;100.00;99541.97;4996410;28;20033;-77
2021/12/03 04:00:08;;;;;;;29.77;9.80;;;;;;;0.36;100.00;99529.97;4996014;28;20026;-79
2021/12/03 04:02:33;;;;;;;27.65;9.80;;;;;;;0.40;100.00;99527.34;4996148;28;20042;-77
2021/12/03 04:04:59;;;;;;;33.60;11.25;;;;;;;0.38;100.00;99520.50;4995672;28;20034;-77
2021/12/03 04:07:24;;;;;;;24.17;9.02;;;;;;;0.39;100.00;99517.91;4995302;28;20425;-77
2021/12/03 04:09:50;;;;;;;27.92;10.27;;;;;;;0.42;100.00;99501.63;4995276;28;20037;-78
2021/12/03 04:12:16;;;;;;;25.63;10.05;;;;;;;0.49;100.00;99503.34;4995936;28;20478;-80
2021/12/03 04:14:41;;;;;;;;;;;;;;;0.41;100.00;99510.19;4995917;28;20488;-77
2021/12/03 04:17:07;;;;;;;24.15;8.73;;;;;;;0.41;100.00;99495.59;4996207;28;19985;-78
2021/12/03 04:19:32;;;;;;;26.13;10.27;;;;;;;0.46;100.00;99493.91;4995341;28;20026;-77
2021/12/03 04:21:58;;;;;;;23.88;9.48;;;;;;;0.46;100.00;99503.34;4996297;28;20034;-77
2021/12/03 04:24:23;;;;;;;25.27;8.93;;;;;;;0.40;100.00;99493.91;4995999;28;20043;-78
2021/12/03 04:26:48;;;;;;;27.85;9.65;;;;;;;0.53;100.00;99490.47;4996128;28;20118;-78
2021/12/03 04:29:14;;;;;;;23.23;10.00;;;;;;;0.58;100.00;99493.88;4995401;28;20030;-78
2021/12/03 04:31:39;;;;;;;25.63;9.40;;;;;;;0.57;100.00;99502.47;4995960;28;20258;-77
2021/12/03 04:34:05;;;;;;;27.73;9.02;;;;;;;0.64;100.00;99495.59;4996604;28;20276;-78
2021/12/03 04:36:30;;;;;;;35.92;9.57;;;;;;;0.69;100.00;99491.31;4996260;28;20060;-78
2021/12/03 04:38:55;;;;;;;17.33;8.13;;;;;;;0.68;100.00;99488.72;4995319;28;20051;-78
2021/12/03 04:41:21;;;;;;;29.42;8.63;;;;;;;0.70;100.00;99477.56;4995848;28;20572;-78
2021/12/03 04:43:46;;;;;;;21.30;7.70;;;;;;;0.67;100.00;99469.84;4995656;28;20025;-78
2021/12/03 04:46:12;;;;;;;20.02;7.57;;;;;;;0.69;100.00;99472.41;4995748;28;20362;-78
2021/12/03 04:48:37;;;;;;;22.17;8.30;;;;;;;0.70;100.00;99476.72;4996006;28;20453;-77
2021/12/03 04:51:02;;;;;;;18.20;8.30;;;;;;;0.75;100.00;99477.53;4995738;28;20032;-79
2021/12/03 04:53:28;;;;;;;25.70;8.65;;;;;;;0.77;100.00;99475.81;4996014;28;20539;-78
2021/12/03 04:55:53;;;;;;;21.00;7.78;;;;;;;0.74;100.00;99479.28;4995816;28;20462;-78
2021/12/03 04:58:19;;;;;;;22.95;8.60;;;;;;;0.82;100.00;99472.34;4996056;28;20036;-78
2021/12/03 05:00:51;;;;;;;20.60;7.10;;;;;;;0.76;100.00;99480.09;4995310;28;20038;-77
2021/12/03 05:03:17;;;;;;;23.38;8.75;;;;;;;0.69;100.00;99478.44;4995549;28;20034;-77
2021/12/03 05:05:48;;;;;;;;;;;;;;;0.74;100.00;99484.44;4995185;28;20030;-77
2021/12/03 05:08:14;;;;;;;19.20;7.05;;;;;;;0.82;100.00;99494.69;4994182;28;20303;-76
2021/12/03 05:10:41;;;;;;;19.58;7.88;;;;;;;0.79;100.00;99499.84;4993165;28;20034;-77
2021/12/03 05:13:10;;;;;;;15.35;6.90;;;;;;;0.78;100.00;99495.56;4993607;28;20040;-77
2021/12/03 05:15:37;;;;;;;18.13;7.15;;;;;;;0.80;100.00;99496.41;4993997;28;20026;-77
2021/12/03 05:18:05;;;;;;;21.00;7.32;;;;;;;0.81;100.00;99490.41;4992800;28;20030;-76
2021/12/03 05:20:30;;;;;;;16.23;7.35;;;;;;;0.90;100.00;99496.38;4994442;28;20031;-77
2021/12/03 05:22:57;;;;;;;15.73;6.55;;;;;;;0.86;100.00;99496.41;4995738;28;20037;-77
2021/12/03 05:25:22;;;;;;;;;;;;;;;0.90;100.00;99487.78;4994616;28;20169;-78
2021/12/03 05:27:49;;;;;;;16.92;7.68;;;;;;;0.86;100.00;99491.25;4995504;28;19976;-77
2021/12/03 05:30:15;;;;;;;15.93;7.20;;;;;;;0.95;100.00;99496.38;4994502;28;20559;-77
2021/12/03 05:32:40;;;;;;;17.77;6.78;;;;;;;1.00;100.00;99492.94;4951123;28;20074;-77
2021/12/03 05:35:07;;;;;;;15.50;5.80;;;;;;;1.03;100.00;99498.94;4998299;28;20037;-78
2021/12/03 05:37:33;;;;;;;18.30;7.50;;;;;;;1.07;100.00;99505.78;4999044;28;20042;-78
2021/12/03 05:39:58;;;;;;;18.35;7.03;;;;;;;1.05;100.00;99502.38;4999592;28;20038;-77
2021/12/03 05:42:24;;;;;;;18.02;8.13;;;;;;;1.11;100.00;99492.03;4998099;28;20504;-77
2021/12/03 05:44:49;;;;;;;16.73;6.40;;;;;;;1.06;100.00;99501.50;4997712;28;20457;-78
2021/12/03 05:47:14;;;;;;;30.77;7.93;;;;;;;1.06;100.00;99507.50;4998271;28;20092;-77
2021/12/03 05:49:40;;;;;;;17.33;6.85;;;;;;;1.07;100.00;99495.50;5000358;28;20052;-77
2021/12/03 05:52:05;;;;;;;19.67;7.18;;;;;;;1.07;100.00;99488.63;4997912;28;20027;-78
2021/12/03 05:54:31;;;;;;;15.13;6.97;;;;;;;1.11;100.00;99492.03;4998105;28;20093;-77
2021/12/03 05:56:56;;;;;;;21.05;8.85;;;;;;;1.11;100.00;99495.47;4998948;28;20035;-77
2021/12/03 05:59:22;;;;;;;16.90;7.28;;;;;;;1.10;100.00;99496.34;4997472;28;20465;-77
2021/12/03 06:01:47;;;;;;;17.10;6.45;;;;;;;1.13;100.00;99498.88;4997367;28;20041;-77
2021/12/03 06:04:13;;;;;;;16.65;7.35;;;;;;;1.11;100.00;99507.50;4997990;28;20057;-77
2021/12/03 06:06:38;;;;;;;16.38;7.53;;;;;;;1.15;100.00;99497.16;4997571;28;20037;-77
2021/12/03 06:09:05;;;;;;;16.08;7.05;;;;;;;1.07;100.00;99498.94;4997275;28;20030;-77
2021/12/03 06:11:30;;;;;;;17.83;6.40;;;;;;;1.11;100.00;99486.88;4997792;28;20465;-77
2021/12/03 06:13:56;;;;;;;21.45;6.95;;;;;;;1.08;100.00;99486.91;4997444;28;20041;-77
2021/12/03 06:16:21;;;;;;;17.40;7.15;;;;;;;1.12;100.00;99486.84;4997820;28;20042;-78
2021/12/03 06:18:46;;;;;;;16.23;7.40;;;;;;;1.11;100.00;99492.03;4997341;28;20049;-77
2021/12/03 06:21:14;;;;;;;19.67;7.30;;;;;;;1.12;100.00;99489.44;4997451;28;20038;-78
2021/12/03 06:23:41;;;;;;;19.55;6.65;;;;;;;1.12;100.00;99501.47;4997411;28;20112;-79
2021/12/03 06:26:07;;;;;;;;;;;;;;;1.07;100.00;99493.78;4997637;28;20120;-77
2021/12/03 06:28:33;;;;;;;14.98;6.38;;;;;;;1.09;100.00;99486.88;4997395;28;20311;-77
2021/12/03 06:30:59;;;;;;;17.42;6.97;;;;;;;1.13;100.00;99488.56;4997075;28;20081;-76
2021/12/03 06:33:25;;;;;;;19.23;7.95;;;;;;;1.15;100.00;99493.72;4997349;28;20026;-77
2021/12/03 06:35:50;;;;;;;20.15;7.38;;;;;;;1.16;100.00;99495.44;5012691;28;20046;-77
2021/12/03 06:38:16;;;;;;;18.00;7.53;;;;;;;1.10;100.00;99498.06;4995458;28;20042;-77
2021/12/03 06:40:43;;;;;;;20.42;6.13;;;;;;;1.12;100.00;99504.88;4995786;28;20041;-77
2021/12/03 06:43:08;;;;;;;22.45;7.05;;;;;;;1.18;100.00;99493.72;4996972;28;20061;-77
2021/12/03 06:45:34;;;;;;;15.93;6.85;;;;;;;1.16;100.00;99498.88;4996231;28;20065;-77
2021/12/03 06:47:59;;;;;;;16.23;6.50;;;;;;;1.18;100.00;99498.84;4995279;28;20409;-78
2021/12/03 06:50:25;;;;;;;24.52;8.40;;;;;;;1.13;100.00;99493.72;4998039;28;20034;-77
2021/12/03 06:52:59;;;;;;;20.83;7.03;;;;;;;1.18;100.00;99492.00;4996205;28;20041;-77
2021/12/03 06:55:24;;;;;;;23.67;8.18;;;;;;;1.21;100.00;99499.72;4997397;28;20038;-77
2021/12/03 06:57:50;;;;;;;21.23;7.90;;;;;;;1.23;100.00;99489.41;4997125;28;20030;-77
2021/12/03 07:00:16;;;;;;;20.60;8.27;;;;;;;1.19;100.00;99488.53;4995329;28;20524;-77
2021/12/03 07:02:41;;;;;;;26.83;7.45;;;;;;;1.30;100.00;99484.22;4995255;28;20038;-77
2021/12/03 07:05:08;;;;;;;20.58;7.53;;;;;;;1.34;100.00;99483.34;4996532;28;20081;-77
2021/12/03 07:07:34;;;;;;;21.90;7.53;;;;;;;1.39;100.00;99482.47;4996131;28;20117;-77
2021/12/03 07:10:00;;;;;;;21.15;6.55;;;;;;;1.41;100.00;99479.00;4996363;28;20062;-78
2021/12/03 07:12:26;;;;;;;24.88;7.72;;;;;;;1.43;100.00;99479.88;4996399;28;20034;-78
2021/12/03 07:14:51;;;;;;;19.17;7.57;;;;;;;1.49;100.00;99486.69;4996657;28;20052;-77
2021/12/03 07:17:17;;;;;;;19.05;7.70;;;;;;;1.48;100.00;99482.41;4996390;28;20046;-77
2021/12/03 07:19:42;;;;;;;27.15;8.55;;;;;;;1.57;100.00;99477.19;4995153;28;20031;-77
2021/12/03 07:22:08;;;;;;;19.77;7.28;;;;;;;1.60;100.00;99484.91;4995713;28;20449;-78
2021/12/03 07:24:34;;;;;;;24.48;7.43;;;;;;;1.63;100.00;99484.91;4995153;28;20440;-77
2021/12/03 07:26:59;;;;;;;19.75;7.63;;;;;;;1.61;100.00;99484.03;4994067;28;20076;-77
2021/12/03 07:29:25;;;;;;;16.45;7.13;;;;;;;1.66;100.00;99490.91;4993901;28;20121;-79
2021/12/03 07:31:50;;;;;;;19.23;8.02;;;;;;;1.67;100.00;99484.88;5010090;28;20042;-77
2021/12/03 07:34:16;;;;;;;25.35;7.05;;;;;;;1.78;100.00;99483.97;4993989;28;20077;-77
2021/12/03 07:36:41;;;;;;;24.50;7.82;;;;;;;1.77;100.00;99470.19;4993511;28;20084;-77
2021/12/03 07:39:07;;;;;;;19.58;8.00;;;;;;;1.77;100.00;99480.53;4994427;28;20077;-79
2021/12/03 07:41:35;;;;;;;19.52;7.57;;;;;;;1.79;100.00;99480.50;4993993;28;20034;-78
2021/12/03 07:44:01;;;;;;;23.27;7.07;;;;;;;1.83;100.00;99484.78;4997086;28;20449;-78
2021/12/03 07:46:26;;;;;;;18.43;7.50;;;;;;;1.85;100.00;99473.59;4994858;28;20033;-77
2021/12/03 07:48:51;;;;;;;18.50;6.50;;;;;;;1.84;100.00;99478.75;4995814;28;20256;-76
2021/12/03 07:51:17;;;;;;;14.57;6.53;;;;;;;1.84;100.00;99474.47;4995096;28;20755;-77
2021/12/03 07:53:43;;;;;;;18.10;7.40;;;;;;;1.95;100.00;99469.19;4995200;28;20035;-77
2021/12/03 07:56:09;;;;;;;14.77;6.30;;;;;;;1.92;100.00;99467.50;4995438;28;20473;-78
2021/12/03 07:58:35;;;;;;;16.30;7.50;;;;;;;1.87;100.00;99482.16;4995472;28;20046;-77
2021/12/03 08:01:00;;;;;;;18.40;6.22;;;;;;;1.93;100.00;99470.94;4995410;28;20042;-77
2021/12/03 08:03:25;;;;;;;13.63;5.80;;;;;;;1.97;100.00;99480.38;5010156;28;20108;-77
2021/12/03 08:05:52;;;;;;;11.73;5.28;;;;;;;2.01;100.00;99477.75;4996159;28;20117;-78
2021/12/03 08:08:25;;;;;;;14.15;5.85;;;;;;;1.96;100.00;99476.94;4996794;28;20038;-77
2021/12/03 08:10:52;;;;;;;18.83;6.15;;;;;;;1.99;100.00;99482.06;4996743;28;20110;-77
2021/12/03 08:13:17;;;;;;;13.50;5.10;;;;;;;1.94;100.00;99488.13;4996961;28;20465;-77
2021/12/03 08:15:42;;;;;;;17.65;6.00;;;;;;;1.96;100.00;99476.06;4996213;28;20026;-77
2021/12/03 08:18:09;;;;;;;20.15;6.07;;;;;;;1.98;100.00;99476.91;4996636;28;20184;-77
2021/12/03 08:20:35;;;;;;;11.50;3.90;;;;;;;1.97;100.00;99480.38;4995242;28;20113;-78
2021/12/03 08:23:01;;;;;;;13.00;4.28;;;;;;;1.99;100.00;99492.41;4996270;28;20038;-77
2021/12/03 08:25:28;;;;;;;13.18;4.35;;;;;;;2.07;100.00;99482.03;4956457;28;20046;-77
2021/12/03 08:27:53;;;;;;;10.80;3.58;;;;;;;2.04;100.00;99492.38;4994160;28;20031;-77
2021/12/03 08:30:19;;;;;;;11.98;3.70;;;;;;;2.06;100.00;99492.34;4994926;28;20061;-77
2021/12/03 08:32:44;;;;;;;12.85;2.65;;;;;;;2.04;100.00;99487.19;4995077;28;20033;-78
2021/12/03 08:35:10;;;;;;;7.13;3.00;;;;;;;2.06;100.00;99488.03;4994551;28;20112;-77
2021/12/03 08:37:37;;;;;;;6.50;3.03;;;;;;;2.07;100.00;99483.75;4993264;28;20034;-77
2021/12/03 08:40:04;;;;;;;8.55;2.97;;;;;;;2.05;100.00;99480.31;4994943;28;20030;-77
2021/12/03 08:42:29;;;;;;;9.13;2.85;;;;;;;2.09;100.00;99492.34;4994317;28;20046;-78
2021/12/03 08:44:55;;;;;;;8.88;2.70;;;;;;;2.04;100.00;99491.50;4994501;28;20065;-78
2021/12/03 08:47:20;;;;;;;7.32;2.65;;;;;;;2.07;100.00;99489.75;4994011;28;20089;-77
2021/12/03 08:49:51;;;;;;;6.07;2.60;;;;;;;2.09;100.00;99493.19;4994869;28;20121;-77
2021/12/03 08:54:56;;;;;;;10.63;2.65;;;;;;;2.10;100.00;99475.97;4994459;28;20030;-76
2021/12/03 08:57:24;;;;;;;9.88;2.65;;;;;;;2.10;100.00;99466.50;4994212;28;20030;-77
2021/12/03 08:59:55;;;;;;;6.18;2.53;;;;;;;2.15;100.00;99463.91;4994182;28;20049;-77
2021/12/03 09:02:22;;;;;;;7.70;2.92;;;;;;;2.10;100.00;99463.06;4994283;28;20030;-76
2021/12/03 09:04:49;;;;;;;5.22;2.40;;;;;;;2.17;100.00;99475.94;4994368;28;20034;-78
2021/12/03 09:07:14;;;;;;;8.43;2.78;;;;;;;2.16;100.00;99479.38;5009294;28;20034;-77
2021/12/03 09:09:40;;;;;;;5.45;2.35;;;;;;;2.28;100.00;99470.66;4991957;28;20513;-77
2021/12/03 09:12:06;;;;;;;8.73;2.50;;;;;;;2.33;100.00;99468.88;4993886;28;20457;-78
2021/12/03 09:14:49;;;;;;;;;;;;;;;2.28;100.00;99476.66;4993421;28;20058;-77
2021/12/03 09:17:34;;;;;;;7.70;2.30;;;;;;;2.37;100.00;99464.56;4992513;28;20000;-77
2021/12/03 09:25:01;;;;;;;7.43;2.72;;;;;;;2.40;100.00;99449.88;4993766;28;20058;-76
2021/12/03 09:27:27;;;;;;;7.35;2.60;;;;;;;2.36;100.00;99450.78;4993142;28;20412;-76
2021/12/03 09:29:55;;;;;;;7.35;2.60;;;;;;;2.45;100.00;99450.69;4992257;28;20041;-78
2021/12/03 09:32:23;;;;;;;7.18;2.60;;;;;;;2.44;100.00;99450.72;4949387;28;20146;-78
2021/12/03 09:34:49;;;;;;;10.38;2.50;;;;;;;2.43;100.00;99447.28;4995763;28;20026;-78
2021/12/03 09:37:15;;;;;;;;;;;;;;;2.41;100.00;99448.16;4995650;28;20033;-77
2021/12/03 09:39:42;;;;;;;7.63;2.92;;;;;;;2.44;100.00;99437.81;4995040;28;19918;-79
2021/12/03 09:42:08;;;;;;;9.35;2.67;;;;;;;2.44;100.00;99440.38;4993976;28;20033;-77
2021/12/03 09:44:38;;;;;;;10.93;1.88;;;;;;;2.42;100.00;99432.66;4993275;28;20031;-77
2021/12/03 09:47:05;;;;;;;5.15;2.20;;;;;;;2.46;100.00;99425.72;4993488;28;20049;-77
2021/12/03 09:49:35;;;;;;;7.18;1.73;;;;;;;2.48;100.00;99424.00;4994390;28;20045;-77
2021/12/03 09:54:40;;;;;;;8.13;3.03;;;;;;;2.44;100.00;99436.06;4994845;28;20117;-77
2021/12/03 09:57:15;;;;;;;6.75;2.75;;;;;;;2.43;100.00;99424.03;4994144;28;20035;-78
2021/12/03 10:02:45;;;;;;;11.25;2.22;;;;;;;2.46;100.00;99430.91;4994118;28;20128;-77
2021/12/03 10:13:27;;;;;;;7.40;2.05;;;;;;;2.53;100.00;99429.97;4993556;28;20424;-77
2021/12/03 10:18:47;;;;;;;8.38;3.03;;;;;;;2.60;100.00;99429.88;4993467;28;20109;-78
2021/12/03 10:44:56;;;;;;;7.70;2.53;;;;;;;2.79;100.00;99391.78;4996783;28;20376;-78
2021/12/03 10:52:59;;;;;;;7.85;1.92;;;;;;;2.93;100.00;99387.31;4996681;28;20125;-78
2021/12/03 11:39:08;;;;;;;6.00;1.95;;;;;;;3.08;100.00;99300.91;4995536;28;20489;-78
2021/12/03 11:59:27;;;;;;;7.50;1.80;;;;;;;3.19;100.00;99265.41;4994575;28;20049;-76
2021/12/03 13:33:16;;;;;;;2.30;1.00;;;;;;;3.71;100.00;99116.22;4956402;28;20416;-77
2021/12/03 14:14:22;;;;;;;4.22;1.58;;;;;;;3.81;100.00;99089.22;4997669;28;20117;-78
2021/12/03 14:18:08;;;;;;;3.38;1.27;;;;;;;3.78;100.00;99087.56;4998543;28;20042;-78
2021/12/03 14:38:07;;;;;;;3.80;1.48;;;;;;;3.71;100.00;99065.31;4998707;28;20049;-78
2021/12/03 14:43:37;;;;;;;2.90;1.20;;;;;;;3.61;100.00;99063.78;4997561;28;20533;-77
2021/12/03 14:53:08;;;;;;;2.38;0.95;;;;;;;3.23;100.00;99074.88;4980800;28;20038;-78
2021/12/03 14:55:58;;;;;;;2.00;0.90;;;;;;;3.22;100.00;99070.59;4997278;28;20030;-78
2021/12/03 15:10:26;;;;;;;4.00;1.50;;;;;;;2.81;100.00;99042.91;4936371;29;20038;-78
2021/12/03 15:21:18;;;;;;;4.85;1.75;;;;;;;2.49;100.00;99046.03;4996687;28;20045;-76
2021/12/03 15:57:11;;;;;;;4.80;1.98;;;;;;;2.03;100.00;99027.81;5034291;28;20477;-77
2021/12/03 16:08:24;;;;;;;8.25;1.98;;;;;;;1.90;100.00;99006.50;4963100;28;20134;-77
2021/12/03 16:24:08;;;;;;;6.47;2.83;;;;;;;1.90;100.00;99001.34;5033995;28;20029;-75
2021/12/03 16:27:30;;;;;;;6.85;2.15;;;;;;;1.83;100.00;98989.44;5034105;28;20183;-76
2021/12/03 16:46:10;;;;;;;5.60;2.25;;;;;;;1.89;100.00;98987.59;5033674;28;20091;-76
2021/12/03 16:49:27;;;;;;;5.75;1.95;;;;;;;1.87;100.00;98986.75;5033925;28;20036;-75
2021/12/03 16:53:49;;;;;;;6.60;2.25;;;;;;;1.83;100.00;98981.69;5033298;28;20057;-76
2021/12/03 16:56:18;;;;;;;7.35;2.80;;;;;;;1.80;100.00;98974.00;5032925;28;20034;-76
2021/12/03 16:58:44;;;;;;;7.15;2.53;;;;;;;1.84;100.00;98976.50;5033744;28;20033;-76
2021/12/03 17:01:36;;;;;;;;;;;;;;;1.84;100.00;98975.66;5034052;28;20033;-77
2021/12/03 17:09:40;;;;;;;5.13;2.17;;;;;;;1.75;100.00;98971.47;5033425;28;20036;-75
2021/12/03 17:47:47;;;;;;;5.40;2.30;;;;;;;1.88;100.00;98949.75;4995267;28;20026;-77
2021/12/03 17:53:08;;;;;;;6.10;2.58;;;;;;;1.90;100.00;98948.00;5037186;28;20033;-76
2021/12/03 17:58:36;;;;;;;8.55;3.15;;;;;;;1.85;100.00;98939.50;5036515;28;20107;-76
2021/12/03 18:01:09;;;;;;;7.20;2.33;;;;;;;1.86;100.00;98935.19;5036815;28;20037;-77
2021/12/03 18:06:24;;;;;;;5.57;2.28;;;;;;;1.92;100.00;98923.03;5036576;28;20033;-76
2021/12/03 18:44:00;;;;;;;5.70;2.47;;;;;;;1.93;100.00;98859.38;5035260;28;20064;-77
2021/12/03 18:56:52;;;;;;;9.48;4.95;;;;;;;2.04;100.00;98846.31;5036712;28;20051;-78
2021/12/03 18:59:23;;;;;;;7.32;2.90;;;;;;;2.02;100.00;98838.59;5036996;28;20055;-77
2021/12/03 19:01:49;;;;;;;5.88;2.72;;;;;;;2.01;100.00;98840.31;5018390;28;20041;-78
2021/12/03 19:04:26;;;;;;;6.85;2.97;;;;;;;2.04;100.00;98833.41;5036524;28;20087;-78
2021/12/03 19:07:09;;;;;;;5.38;2.65;;;;;;;1.97;100.00;98820.59;5037103;28;20483;-77
2021/12/03 19:09:41;;;;;;;7.53;2.97;;;;;;;2.01;100.00;98808.50;5018955;28;20083;-78